createdAt,value
2023-04-06T00:02:29.130Z,-1.08
2023-04-06T00:05:01.856Z,-1.04
2023-04-06T00:07:35.456Z,-1.08
2023-04-06T00:10:09.779Z,-1.03
2023-04-06T00:12:42.110Z,-0.98
2023-04-06T00:15:15.027Z,-0.92
2023-04-06T00:17:47.255Z,-0.91
2023-04-06T00:20:20.571Z,-0.96
2023-04-06T00:22:52.803Z,-0.96
2023-04-06T00:25:25.032Z,-0.93
2023-04-06T00:27:57.229Z,-1.01
2023-04-06T00:30:29.732Z,-1.07
2023-04-06T00:33:02.099Z,-1.13
2023-04-06T00:35:34.465Z,-1.19
2023-04-06T00:38:06.675Z,-1.30
2023-04-06T00:40:40.694Z,-1.44
2023-04-06T00:43:13.463Z,-1.51
2023-04-06T00:45:46.311Z,-1.53
2023-04-06T00:48:18.862Z,-1.58
2023-04-06T00:50:51.358Z,-1.66
2023-04-06T00:53:23.840Z,-1.74
2023-04-06T00:55:56.590Z,-1.80
2023-04-06T00:58:29.353Z,-1.82
2023-04-06T01:01:07.597Z,-1.84
2023-04-06T01:03:43.260Z,-1.85
2023-04-06T01:06:17.189Z,-1.88
2023-04-06T01:08:50.652Z,-1.85
2023-04-06T01:11:25.735Z,-1.77
2023-04-06T01:13:59.238Z,-1.69
2023-04-06T01:16:41.552Z,-1.66
2023-04-06T01:19:16.712Z,-1.59
2023-04-06T01:21:54.378Z,-1.52
2023-04-06T01:24:35.804Z,-1.51
2023-04-06T01:27:31.397Z,-1.51
2023-04-06T01:30:22.841Z,-1.55
2023-04-06T01:33:02.417Z,-1.69
2023-04-06T01:36:01.393Z,-1.83
2023-04-06T01:38:34.052Z,-1.92
2023-04-06T01:41:06.337Z,-2.04
2023-04-06T01:43:49.342Z,-2.04
2023-04-06T01:46:21.838Z,-2.08
2023-04-06T01:48:54.882Z,-2.13
2023-04-06T01:51:34.543Z,-2.16
2023-04-06T01:54:08.592Z,-2.26
2023-04-06T01:57:04.172Z,-2.36
2023-04-06T01:59:39.715Z,-2.37
2023-04-06T02:02:16.563Z,-2.34
2023-04-06T02:04:57.066Z,-2.29
2023-04-06T02:07:29.372Z,-2.30
2023-04-06T02:10:01.947Z,-2.25
2023-04-06T02:12:40.967Z,-2.18
2023-04-06T02:15:15.651Z,-2.14
2023-04-06T02:17:48.253Z,-2.05
2023-04-06T02:20:20.659Z,-1.91
2023-04-06T02:22:52.802Z,-1.83
2023-04-06T02:25:25.609Z,-1.74
2023-04-06T02:27:57.848Z,-1.67
2023-04-06T02:30:30.217Z,-1.66
2023-04-06T02:33:02.947Z,-1.80
2023-04-06T02:35:37.465Z,-1.92
2023-04-06T02:38:09.890Z,-2.04
2023-04-06T02:40:42.153Z,-2.14
2023-04-06T02:43:26.719Z,-2.22
2023-04-06T02:46:08.868Z,-2.24
2023-04-06T02:48:43.489Z,-2.31
2023-04-06T02:51:15.925Z,-2.38
2023-04-06T02:53:49.979Z,-2.47
2023-04-06T02:56:22.760Z,-2.52
2023-04-06T02:58:56.253Z,-2.54
2023-04-06T03:01:30.502Z,-2.57
2023-04-06T03:04:04.934Z,-2.59
2023-04-06T03:06:37.606Z,-2.63
2023-04-06T03:09:16.977Z,-2.86
2023-04-06T03:11:49.763Z,-2.80
2023-04-06T03:14:27.074Z,-2.71
2023-04-06T03:16:59.575Z,-2.61
2023-04-06T03:19:32.122Z,-2.53
2023-04-06T03:22:05.527Z,-2.46
2023-04-06T03:24:37.799Z,-2.41
2023-04-06T03:27:12.316Z,-2.40
2023-04-06T03:29:46.376Z,-2.40
2023-04-06T03:32:20.128Z,-2.34
2023-04-06T03:34:52.565Z,-2.40
2023-04-06T03:37:24.903Z,-2.53
2023-04-06T03:39:58.985Z,-2.57
2023-04-06T03:42:31.985Z,-2.60
2023-04-06T03:45:10.156Z,-2.70
2023-04-06T03:47:44.180Z,-2.73
2023-04-06T03:50:16.682Z,-2.83
2023-04-06T03:52:49.941Z,-2.85
2023-04-06T03:55:22.326Z,-2.84
2023-04-06T03:57:54.552Z,-2.84
2023-04-06T04:00:26.989Z,-2.83
2023-04-06T04:03:02.998Z,-2.73
2023-04-06T04:05:35.415Z,-2.70
2023-04-06T04:08:08.025Z,-2.66
2023-04-06T04:10:40.195Z,-2.59
2023-04-06T04:13:12.378Z,-2.52
2023-04-06T04:15:45.334Z,-2.49
2023-04-06T04:18:17.693Z,-2.54
2023-04-06T04:20:49.989Z,-2.49
2023-04-06T04:23:22.412Z,-2.30
2023-04-06T04:25:54.734Z,-2.24
2023-04-06T04:28:27.107Z,-2.22
2023-04-06T04:31:00.494Z,-2.34
2023-04-06T04:33:33.458Z,-2.38
2023-04-06T04:36:07.897Z,-2.32
2023-04-06T04:38:44.357Z,-2.33
2023-04-06T04:41:16.643Z,-2.48
2023-04-06T04:43:49.362Z,-2.61
2023-04-06T04:46:22.552Z,-2.64
2023-04-06T04:48:55.074Z,-2.65
2023-04-06T04:51:27.482Z,-2.65
2023-04-06T04:54:28.744Z,-2.71
2023-04-06T04:57:01.500Z,-2.74
2023-04-06T04:59:47.112Z,-2.71
2023-04-06T05:02:23.673Z,-2.71
2023-04-06T05:05:06.987Z,-2.68
2023-04-06T05:07:39.212Z,-2.52
2023-04-06T05:10:13.688Z,-2.43
2023-04-06T05:12:54.514Z,-2.33
2023-04-06T05:15:26.721Z,-2.16
2023-04-06T05:18:01.518Z,-2.01
2023-04-06T05:20:38.275Z,-2.02
2023-04-06T05:23:10.839Z,-2.03
2023-04-06T05:25:43.213Z,-1.99
2023-04-06T05:28:24.567Z,-2.01
2023-04-06T05:30:58.220Z,-1.98
2023-04-06T05:33:31.190Z,-1.92
2023-04-06T05:36:15.310Z,-1.87
2023-04-06T05:38:51.423Z,-1.81
2023-04-06T05:41:34.313Z,-1.74
2023-04-06T05:44:06.729Z,-1.81
2023-04-06T05:46:41.019Z,-1.81
2023-04-06T05:49:13.851Z,-1.90
2023-04-06T05:51:46.100Z,-1.89
2023-04-06T05:54:18.723Z,-1.79
2023-04-06T05:56:51.132Z,-1.66
2023-04-06T05:59:23.600Z,-1.52
2023-04-06T06:01:56.525Z,-1.47
2023-04-06T06:04:29.192Z,-1.30
2023-04-06T06:07:02.570Z,-1.18
2023-04-06T06:09:44.223Z,-1.14
2023-04-06T06:12:27.340Z,-0.95
2023-04-06T06:15:00.091Z,-0.69
2023-04-06T06:17:33.050Z,-0.37
2023-04-06T06:20:06.703Z,-0.13
2023-04-06T06:22:39.023Z,-0.08
2023-04-06T06:25:12.607Z,0.02
2023-04-06T06:27:44.943Z,0.07
2023-04-06T06:30:18.968Z,0.22
2023-04-06T06:32:53.759Z,0.39
2023-04-06T06:35:26.217Z,0.49
2023-04-06T06:37:58.440Z,0.56
2023-04-06T06:40:31.983Z,0.66
2023-04-06T06:43:04.558Z,0.75
2023-04-06T06:45:49.308Z,0.81
2023-04-06T06:48:21.666Z,0.93
2023-04-06T06:50:54.124Z,1.04
2023-04-06T06:53:26.988Z,1.19
2023-04-06T06:55:59.352Z,1.32
2023-04-06T06:58:32.718Z,1.41
2023-04-06T07:01:06.369Z,1.53
2023-04-06T07:03:39.788Z,1.66
2023-04-06T07:06:12.582Z,1.76
2023-04-06T07:08:46.474Z,1.88
2023-04-06T07:11:18.999Z,2.04
2023-04-06T07:13:51.211Z,2.13
2023-04-06T07:16:24.306Z,2.23
2023-04-06T07:18:56.826Z,2.34
2023-04-06T07:21:29.400Z,2.48
2023-04-06T07:24:01.770Z,2.65
2023-04-06T07:26:34.123Z,2.80
2023-04-06T07:29:06.360Z,2.99
2023-04-06T07:31:39.013Z,3.18
2023-04-06T07:34:11.529Z,3.34
2023-04-06T07:36:46.105Z,3.60
2023-04-06T07:39:19.236Z,3.89
2023-04-06T07:41:52.032Z,4.10
2023-04-06T07:44:24.412Z,4.25
2023-04-06T07:46:56.585Z,4.43
2023-04-06T07:49:29.176Z,4.60
2023-04-06T07:52:02.056Z,4.77
2023-04-06T07:54:34.406Z,4.93
2023-04-06T07:57:06.901Z,5.16
2023-04-06T07:59:39.316Z,5.39
2023-04-06T08:02:11.766Z,5.57
2023-04-06T08:04:45.719Z,5.75
2023-04-06T08:07:18.261Z,5.92
2023-04-06T08:09:51.526Z,6.10
2023-04-06T08:12:24.019Z,6.17
2023-04-06T08:14:57.940Z,6.24
2023-04-06T08:17:31.786Z,6.39
2023-04-06T08:20:05.416Z,6.42
2023-04-06T08:22:37.721Z,6.53
2023-04-06T08:25:10.988Z,6.69
2023-04-06T08:27:43.358Z,6.81
2023-04-06T08:30:16.893Z,6.89
2023-04-06T08:32:49.146Z,7.01
2023-04-06T08:35:21.732Z,7.15
2023-04-06T08:37:54.043Z,7.29
2023-04-06T08:40:26.553Z,7.31
2023-04-06T08:43:03.234Z,7.40
2023-04-06T08:45:35.695Z,7.55
2023-04-06T08:48:09.407Z,7.64
2023-04-06T08:50:42.295Z,7.74
2023-04-06T08:53:16.158Z,7.80
2023-04-06T08:55:49.290Z,7.96
2023-04-06T08:58:35.279Z,8.12
2023-04-06T09:01:15.131Z,8.29
2023-04-06T09:03:49.238Z,8.35
2023-04-06T09:06:22.011Z,8.37
2023-04-06T09:08:54.260Z,8.36
2023-04-06T09:11:26.763Z,8.26
2023-04-06T09:13:59.923Z,8.20
2023-04-06T09:16:43.717Z,8.22
2023-04-06T09:19:16.489Z,8.27
2023-04-06T09:21:48.770Z,8.34
2023-04-06T09:24:26.587Z,8.52
2023-04-06T09:26:58.794Z,8.73
2023-04-06T09:29:31.016Z,9.03
2023-04-06T09:32:08.936Z,9.26
2023-04-06T09:34:42.487Z,9.49
2023-04-06T09:37:19.412Z,9.60
2023-04-06T09:39:53.336Z,9.62
2023-04-06T09:42:33.693Z,9.55
2023-04-06T09:45:08.608Z,9.33
2023-04-06T09:47:46.520Z,9.03
2023-04-06T09:50:21.252Z,8.82
2023-04-06T09:52:56.599Z,8.59
2023-04-06T09:55:33.057Z,8.62
2023-04-06T09:58:09.313Z,9.05
2023-04-06T10:00:51.735Z,9.32
2023-04-06T10:03:38.813Z,9.53
2023-04-06T10:06:17.839Z,9.50
2023-04-06T10:08:52.338Z,9.57
2023-04-06T10:11:25.740Z,9.43
2023-04-06T10:13:59.153Z,9.25
2023-04-06T10:16:33.185Z,9.18
2023-04-06T10:19:12.661Z,9.34
2023-04-06T10:21:51.056Z,9.27
2023-04-06T10:24:23.668Z,9.01
2023-04-06T10:27:04.319Z,9.05
2023-04-06T10:29:49.756Z,9.34
2023-04-06T10:32:22.373Z,9.67
2023-04-06T10:34:54.782Z,10.00
2023-04-06T10:37:27.068Z,10.27
2023-04-06T10:39:59.806Z,10.42
2023-04-06T10:42:41.965Z,10.62
2023-04-06T10:45:21.151Z,10.90
2023-04-06T10:47:54.590Z,11.04
2023-04-06T10:50:27.212Z,11.18
2023-04-06T10:53:10.895Z,11.31
2023-04-06T10:55:45.775Z,11.35
2023-04-06T10:58:18.483Z,11.54
2023-04-06T11:00:51.860Z,11.64
2023-04-06T11:03:24.264Z,11.46
2023-04-06T11:05:56.736Z,11.45
2023-04-06T11:08:33.723Z,11.29
2023-04-06T11:11:12.010Z,11.33
2023-04-06T11:13:46.931Z,11.62
2023-04-06T11:16:21.023Z,11.92
2023-04-06T11:18:57.249Z,11.92
2023-04-06T11:21:40.691Z,11.72
2023-04-06T11:24:16.397Z,11.82
2023-04-06T11:26:52.481Z,11.89
2023-04-06T11:29:26.743Z,12.04
2023-04-06T11:32:03.285Z,12.14
2023-04-06T11:34:38.388Z,12.19
2023-04-06T11:37:14.054Z,12.05
2023-04-06T11:39:53.627Z,11.93
2023-04-06T11:42:31.153Z,12.03
2023-04-06T11:45:09.702Z,12.05
2023-04-06T11:47:44.011Z,12.25
2023-04-06T11:50:18.038Z,12.52
2023-04-06T11:53:04.231Z,12.62
2023-04-06T11:55:41.832Z,12.66
2023-04-06T11:58:14.491Z,12.46
2023-04-06T12:00:47.986Z,12.60
2023-04-06T12:03:20.964Z,12.74
2023-04-06T12:05:53.523Z,12.62
2023-04-06T12:08:29.235Z,12.63
2023-04-06T12:11:01.788Z,12.47
2023-04-06T12:13:34.632Z,12.30
2023-04-06T12:16:08.008Z,12.30
2023-04-06T12:18:40.692Z,12.36
2023-04-06T12:21:13.518Z,12.22
2023-04-06T12:23:46.508Z,12.12
2023-04-06T12:26:18.718Z,12.00
2023-04-06T12:28:52.184Z,12.03
2023-04-06T12:31:26.712Z,11.90
2023-04-06T12:33:58.987Z,11.71
2023-04-06T12:36:32.566Z,11.58
2023-04-06T12:39:05.442Z,11.35
2023-04-06T12:41:38.285Z,11.20
2023-04-06T12:44:10.759Z,10.97
2023-04-06T12:46:44.552Z,10.74
2023-04-06T12:49:19.747Z,10.46
2023-04-06T12:51:52.185Z,10.25
2023-04-06T12:54:24.532Z,10.08
2023-04-06T12:56:57.754Z,10.00
2023-04-06T12:59:35.710Z,9.96
2023-04-06T13:02:09.016Z,9.88
2023-04-06T13:04:41.531Z,9.78
2023-04-06T13:07:13.873Z,9.67
2023-04-06T13:09:49.264Z,9.54
2023-04-06T13:12:23.554Z,9.35
2023-04-06T13:14:55.798Z,9.23
2023-04-06T13:17:29.594Z,9.14
2023-04-06T13:20:02.364Z,9.07
2023-04-06T13:22:34.918Z,8.92
2023-04-06T13:25:08.336Z,8.84
2023-04-06T13:27:40.750Z,8.80
2023-04-06T13:30:16.515Z,8.73
2023-04-06T13:32:50.663Z,8.67
2023-04-06T13:35:23.519Z,8.64
2023-04-06T13:37:58.093Z,8.60
2023-04-06T13:40:30.556Z,8.53
2023-04-06T13:43:03.084Z,8.50
2023-04-06T13:45:35.806Z,8.42
2023-04-06T13:48:08.734Z,8.30
2023-04-06T13:50:41.948Z,8.25
2023-04-06T13:53:14.465Z,8.23
2023-04-06T13:55:54.426Z,8.18
2023-04-06T13:58:27.082Z,8.16
2023-04-06T14:01:03.832Z,8.09
2023-04-06T14:03:36.286Z,8.07
2023-04-06T14:06:29.806Z,8.05
2023-04-06T14:09:03.988Z,8.01
2023-04-06T14:11:36.471Z,8.00
2023-04-06T14:14:08.787Z,7.94
2023-04-06T14:16:41.217Z,7.90
2023-04-06T14:19:14.162Z,7.94
2023-04-06T14:21:46.965Z,7.99
2023-04-06T14:24:20.164Z,7.98
2023-04-06T14:26:52.745Z,7.95
2023-04-06T14:29:25.478Z,7.95
2023-04-06T14:32:01.238Z,7.95
2023-04-06T14:34:33.482Z,7.94
2023-04-06T14:37:05.958Z,7.93
2023-04-06T14:39:38.370Z,7.89
2023-04-06T14:42:10.801Z,7.83
2023-04-06T14:44:44.201Z,7.75
2023-04-06T14:47:21.388Z,7.66
2023-04-06T14:49:55.613Z,7.56
2023-04-06T14:52:29.981Z,7.45
2023-04-06T14:55:03.543Z,7.38
2023-04-06T14:57:36.040Z,7.33
2023-04-06T15:00:10.669Z,7.28
2023-04-06T15:02:44.656Z,7.26
2023-04-06T15:05:17.291Z,7.28
2023-04-06T15:07:49.509Z,7.29
2023-04-06T15:10:22.564Z,7.32
2023-04-06T15:12:56.533Z,7.33
2023-04-06T15:15:31.158Z,7.34
2023-04-06T15:18:06.484Z,7.32
2023-04-06T15:20:42.135Z,7.28
2023-04-06T15:23:17.111Z,7.22
2023-04-06T15:25:51.978Z,7.19
2023-04-06T15:28:26.746Z,7.14
2023-04-06T15:31:04.507Z,7.11
2023-04-06T15:33:39.724Z,7.06
2023-04-06T15:36:27.684Z,7.00
2023-04-06T15:39:02.870Z,6.89
2023-04-06T15:41:38.335Z,6.81
2023-04-06T15:44:17.820Z,6.76
2023-04-06T15:46:53.169Z,6.75
2023-04-06T15:49:27.082Z,6.75
2023-04-06T15:52:00.163Z,6.74
2023-04-06T15:54:34.230Z,6.72
2023-04-06T15:57:08.446Z,6.71
2023-04-06T15:59:41.370Z,6.68
2023-04-06T16:02:13.935Z,6.65
2023-04-06T16:04:46.625Z,6.65
2023-04-06T16:07:19.386Z,6.59
2023-04-06T16:09:52.287Z,6.54
2023-04-06T16:12:26.669Z,6.49
2023-04-06T16:15:00.262Z,6.47
2023-04-06T16:17:32.649Z,6.43
2023-04-06T16:20:06.104Z,6.39
2023-04-06T16:22:39.011Z,6.35
2023-04-06T16:25:12.934Z,6.33
2023-04-06T16:27:44.981Z,6.30
2023-04-06T16:30:17.604Z,6.27
2023-04-06T16:32:51.972Z,6.24
2023-04-06T16:35:26.300Z,6.22
2023-04-06T16:37:58.645Z,6.20
2023-04-06T16:40:31.356Z,6.15
2023-04-06T16:43:04.255Z,6.13
2023-04-06T16:45:36.572Z,6.14
2023-04-06T16:48:09.269Z,6.08
2023-04-06T16:50:41.580Z,6.04
2023-04-06T16:53:13.981Z,6.01
2023-04-06T16:55:46.461Z,6.00
2023-04-06T16:58:18.846Z,5.98
2023-04-06T17:00:51.366Z,5.98
2023-04-06T17:03:23.529Z,5.95
2023-04-06T17:05:56.592Z,5.92
2023-04-06T17:08:29.149Z,5.88
2023-04-06T17:11:04.600Z,5.87
2023-04-06T17:13:37.682Z,5.87
2023-04-06T17:16:10.593Z,5.86
2023-04-06T17:18:42.931Z,5.83
2023-04-06T17:21:17.226Z,5.79
2023-04-06T17:23:50.211Z,5.80
2023-04-06T17:26:22.992Z,5.80
2023-04-06T17:28:55.606Z,5.79
2023-04-06T17:31:28.484Z,5.77
2023-04-06T17:34:01.010Z,5.75
2023-04-06T17:36:34.197Z,5.72
2023-04-06T17:39:06.766Z,5.71
2023-04-06T17:41:39.553Z,5.68
2023-04-06T17:44:11.731Z,5.65
2023-04-06T17:46:44.400Z,5.62
2023-04-06T17:49:16.808Z,5.57
2023-04-06T17:51:49.859Z,5.53
2023-04-06T17:54:22.307Z,5.45
2023-04-06T17:56:55.022Z,5.35
2023-04-06T17:59:27.717Z,5.29
2023-04-06T18:02:00.872Z,5.21
2023-04-06T18:04:34.029Z,5.15
2023-04-06T18:07:06.773Z,5.10
2023-04-06T18:09:39.858Z,5.03
2023-04-06T18:12:12.419Z,4.95
2023-04-06T18:14:45.904Z,4.88
2023-04-06T18:17:19.611Z,4.81
2023-04-06T18:19:52.214Z,4.72
2023-04-06T18:22:25.419Z,4.69
2023-04-06T18:24:59.621Z,4.66
2023-04-06T18:27:32.405Z,4.61
2023-04-06T18:30:05.297Z,4.55
2023-04-06T18:32:38.030Z,4.52
2023-04-06T18:35:12.593Z,4.48
2023-04-06T18:37:44.946Z,4.44
2023-04-06T18:40:34.083Z,4.32
2023-04-06T18:43:08.620Z,4.21
2023-04-06T18:45:43.215Z,4.13
2023-04-06T18:48:16.286Z,4.04
2023-04-06T18:50:57.871Z,3.98
2023-04-06T18:53:30.580Z,3.93
2023-04-06T18:56:04.710Z,3.88
2023-04-06T18:58:37.177Z,3.84
2023-04-06T19:01:09.869Z,3.83
2023-04-06T19:03:43.634Z,3.80
2023-04-06T19:06:21.160Z,3.82
2023-04-06T19:08:55.389Z,3.92
2023-04-06T19:11:29.987Z,4.01
2023-04-06T19:14:04.338Z,4.03
2023-04-06T19:16:42.341Z,4.07
2023-04-06T19:19:17.135Z,4.12
2023-04-06T19:21:52.297Z,4.13
2023-04-06T19:24:26.811Z,4.15
2023-04-06T19:27:00.901Z,4.14
2023-04-06T19:29:34.430Z,4.14
2023-04-06T19:32:11.027Z,4.14
2023-04-06T19:34:44.052Z,4.06
2023-04-06T19:37:20.143Z,4.09
2023-04-06T19:39:52.893Z,4.10
2023-04-06T19:42:26.012Z,4.06
2023-04-06T19:44:59.436Z,4.07
2023-04-06T19:47:32.691Z,4.10
2023-04-06T19:50:05.485Z,4.14
2023-04-06T19:52:38.556Z,4.20
2023-04-06T19:55:13.047Z,4.24
2023-04-06T19:57:45.486Z,4.26
2023-04-06T20:00:19.247Z,4.24
2023-04-06T20:02:52.064Z,4.25
2023-04-06T20:05:25.529Z,4.17
2023-04-06T20:07:59.035Z,4.21
2023-04-06T20:10:33.063Z,4.26
2023-04-06T20:13:07.264Z,4.24
2023-04-06T20:15:40.671Z,4.25
2023-04-06T20:18:13.537Z,4.10
2023-04-06T20:20:46.355Z,3.98
2023-04-06T20:23:19.151Z,3.74
2023-04-06T20:25:51.535Z,3.56
2023-04-06T20:28:24.325Z,3.43
2023-04-06T20:30:57.061Z,3.37
2023-04-06T20:33:29.238Z,3.37
2023-04-06T20:36:03.148Z,3.34
2023-04-06T20:38:35.871Z,3.30
2023-04-06T20:41:10.447Z,3.30
2023-04-06T20:43:42.715Z,3.19
2023-04-06T20:46:19.754Z,3.16
2023-04-06T20:48:53.532Z,3.14
2023-04-06T20:51:26.168Z,3.15
2023-04-06T20:54:01.220Z,3.16
2023-04-06T20:56:33.638Z,3.32
2023-04-06T20:59:06.334Z,3.42
2023-04-06T21:01:38.653Z,3.46
2023-04-06T21:04:11.395Z,3.43
2023-04-06T21:06:43.753Z,3.42
2023-04-06T21:09:16.072Z,3.35
2023-04-06T21:11:48.354Z,3.35
2023-04-06T21:14:21.225Z,3.37
2023-04-06T21:16:56.057Z,3.32
2023-04-06T21:19:28.944Z,3.31
2023-04-06T21:22:01.270Z,3.33
2023-04-06T21:24:33.427Z,3.22
2023-04-06T21:27:05.913Z,3.15
2023-04-06T21:29:38.134Z,3.15
2023-04-06T21:32:10.294Z,3.31
2023-04-06T21:34:46.663Z,3.37
2023-04-06T21:37:19.815Z,3.31
2023-04-06T21:39:52.448Z,3.23
2023-04-06T21:42:25.022Z,3.15
2023-04-06T21:44:59.010Z,3.13
2023-04-06T21:47:32.137Z,3.10
2023-04-06T21:50:05.090Z,3.09
2023-04-06T21:52:37.359Z,3.07
2023-04-06T21:55:11.168Z,3.10
2023-04-06T21:57:44.573Z,3.14
2023-04-06T22:00:20.176Z,3.06
2023-04-06T22:02:52.655Z,3.10
2023-04-06T22:05:25.186Z,3.16
2023-04-06T22:07:57.582Z,3.26
2023-04-06T22:10:29.813Z,3.37
2023-04-06T22:13:02.081Z,3.30
2023-04-06T22:15:34.268Z,3.24
2023-04-06T22:18:06.624Z,3.20
2023-04-06T22:20:38.805Z,3.17
2023-04-06T22:23:11.165Z,3.13
2023-04-06T22:25:43.328Z,3.06
2023-04-06T22:28:15.554Z,2.99
2023-04-06T22:30:47.671Z,2.92
2023-04-06T22:33:19.975Z,2.85
2023-04-06T22:35:52.260Z,2.82
2023-04-06T22:38:24.414Z,2.87
2023-04-06T22:40:56.670Z,2.93
2023-04-06T22:43:28.820Z,2.99
2023-04-06T22:46:00.931Z,2.99
2023-04-06T22:48:33.131Z,2.98
2023-04-06T22:51:05.484Z,3.03
2023-04-06T22:53:37.605Z,3.05
2023-04-06T22:56:09.870Z,2.93
2023-04-06T22:58:42.092Z,2.95
2023-04-06T23:01:14.912Z,2.92
2023-04-06T23:03:48.225Z,2.83
2023-04-06T23:06:20.412Z,2.75
2023-04-06T23:08:52.499Z,2.73
2023-04-06T23:11:24.738Z,2.72
2023-04-06T23:13:56.920Z,2.67
2023-04-06T23:16:29.590Z,2.63
2023-04-06T23:19:01.706Z,2.60
2023-04-06T23:21:33.921Z,2.58
2023-04-06T23:24:06.500Z,2.57
2023-04-06T23:26:38.601Z,2.55
2023-04-06T23:29:10.764Z,2.57
2023-04-06T23:31:43.017Z,2.57
2023-04-06T23:34:15.276Z,2.55
2023-04-06T23:36:47.578Z,2.53
2023-04-06T23:39:19.816Z,2.52
2023-04-06T23:41:52.019Z,2.53
2023-04-06T23:44:24.189Z,2.51
2023-04-06T23:46:56.456Z,2.52
2023-04-06T23:49:28.808Z,2.51
2023-04-06T23:52:00.985Z,2.51
2023-04-06T23:54:33.088Z,2.51
2023-04-06T23:57:05.199Z,2.49
2023-04-06T23:59:37.367Z,2.48
